createdAt,value
2019-03-19T00:02:54.300Z,1.40
2019-03-19T00:07:57.031Z,2.40
2019-03-19T00:12:59.769Z,1.40
2019-03-19T00:18:02.487Z,2.40
2019-03-19T00:23:05.192Z,1.93
2019-03-19T00:28:07.941Z,1.53
2019-03-19T00:33:10.665Z,1.60
2019-03-19T00:38:13.405Z,1.17
2019-03-19T00:43:16.108Z,1.90
2019-03-19T00:48:18.820Z,1.67
2019-03-19T00:53:21.534Z,1.87
2019-03-19T00:58:24.259Z,1.90
2019-03-19T01:03:26.959Z,1.77
2019-03-19T01:08:29.682Z,1.80
2019-03-19T01:13:32.406Z,2.57
2019-03-19T01:18:35.108Z,2.10
2019-03-19T01:23:37.796Z,1.33
2019-03-19T01:28:40.515Z,1.40
2019-03-19T01:33:43.334Z,1.80
2019-03-19T01:38:46.076Z,1.67
2019-03-19T01:43:48.781Z,1.80
2019-03-19T01:48:51.486Z,1.43
2019-03-19T01:53:54.212Z,1.80
2019-03-19T01:58:56.943Z,1.70
2019-03-19T02:03:59.671Z,2.40
2019-03-19T02:09:02.915Z,1.90
2019-03-19T02:14:06.115Z,1.63
2019-03-19T02:19:08.840Z,2.63
2019-03-19T02:24:11.537Z,1.40
2019-03-19T02:29:14.242Z,1.83
2019-03-19T02:34:16.961Z,2.10
2019-03-19T02:39:19.674Z,2.27
2019-03-19T02:44:22.373Z,1.43
2019-03-19T02:49:25.076Z,2.50
2019-03-19T02:54:27.793Z,1.50
2019-03-19T02:59:30.485Z,2.03
2019-03-19T03:04:33.168Z,2.50
2019-03-19T03:09:35.860Z,1.60
2019-03-19T03:14:38.550Z,1.60
2019-03-19T03:19:41.235Z,2.47
2019-03-19T03:24:43.943Z,2.20
2019-03-19T03:29:46.625Z,1.67
2019-03-19T03:34:49.427Z,1.47
2019-03-19T03:39:52.149Z,1.90
2019-03-19T03:44:55.310Z,1.90
2019-03-19T03:49:58.432Z,2.90
2019-03-19T03:55:01.146Z,2.00
2019-03-19T04:00:06.530Z,1.77
2019-03-19T04:05:09.748Z,2.30
2019-03-19T04:10:12.618Z,2.17
2019-03-19T04:15:15.730Z,1.67
2019-03-19T04:20:18.427Z,1.90
2019-03-19T04:25:21.213Z,1.77
2019-03-19T04:30:23.907Z,1.70
2019-03-19T04:35:26.608Z,2.60
2019-03-19T04:40:29.299Z,1.70
2019-03-19T04:45:32.012Z,2.70
2019-03-19T04:50:34.984Z,3.50
2019-03-19T04:55:37.685Z,2.17
2019-03-19T05:00:41.188Z,2.90
2019-03-19T05:05:45.514Z,2.33
2019-03-19T05:10:48.289Z,2.10
2019-03-19T05:15:51.212Z,2.27
2019-03-19T05:20:53.917Z,1.93
2019-03-19T05:25:56.626Z,2.27
2019-03-19T05:30:59.327Z,2.57
2019-03-19T05:36:02.054Z,2.23
2019-03-19T05:41:04.781Z,1.87
2019-03-19T05:46:07.501Z,2.40
2019-03-19T05:51:10.244Z,2.87
2019-03-19T05:56:12.948Z,2.23
2019-03-19T06:01:15.662Z,2.90
2019-03-19T06:06:18.385Z,2.23
2019-03-19T06:11:21.208Z,1.87
2019-03-19T06:16:23.889Z,2.47
2019-03-19T06:21:26.570Z,2.77
2019-03-19T06:26:29.257Z,2.50
2019-03-19T06:31:31.949Z,3.30
2019-03-19T06:36:34.649Z,4.40
2019-03-19T06:41:37.349Z,4.03
2019-03-19T06:46:40.070Z,3.67
2019-03-19T06:51:42.775Z,2.53
2019-03-19T06:56:45.507Z,2.67
2019-03-19T07:01:48.436Z,1.93
2019-03-19T07:06:51.154Z,3.13
2019-03-19T07:11:53.875Z,2.80
2019-03-19T07:16:56.595Z,2.30
2019-03-19T07:21:59.262Z,3.00
2019-03-19T07:27:01.969Z,2.40
2019-03-19T07:32:04.688Z,2.80
2019-03-19T07:37:07.389Z,3.83
2019-03-19T07:42:10.125Z,2.47
2019-03-19T07:47:13.030Z,3.60
2019-03-19T07:52:15.716Z,1.90
2019-03-19T07:57:18.446Z,2.50
2019-03-19T08:02:21.216Z,2.20
2019-03-19T08:07:23.892Z,2.03
2019-03-19T08:12:26.574Z,2.27
2019-03-19T08:17:29.257Z,1.97
2019-03-19T08:22:31.955Z,2.40
2019-03-19T08:27:34.662Z,2.67
2019-03-19T08:32:37.367Z,1.90
2019-03-19T08:37:40.187Z,2.83
2019-03-19T08:42:42.910Z,2.37
2019-03-19T08:47:45.618Z,2.53
2019-03-19T08:52:48.361Z,3.70
2019-03-19T08:57:51.068Z,2.17
2019-03-19T09:02:53.781Z,2.27
2019-03-19T09:07:56.475Z,1.97
2019-03-19T09:12:59.229Z,2.40
2019-03-19T09:18:02.009Z,2.90
2019-03-19T09:23:04.761Z,2.60
2019-03-19T09:28:07.469Z,2.80
2019-03-19T09:33:10.177Z,1.73
2019-03-19T09:38:12.913Z,2.07
2019-03-19T09:43:15.604Z,2.07
2019-03-19T09:48:18.284Z,1.90
2019-03-19T09:53:20.975Z,1.60
2019-03-19T09:58:23.696Z,1.60
2019-03-19T10:03:26.387Z,2.07
2019-03-19T10:08:29.067Z,2.70
2019-03-19T10:13:31.771Z,1.50
2019-03-19T10:18:34.455Z,1.80
2019-03-19T10:23:37.153Z,1.80
2019-03-19T10:28:39.939Z,1.70
2019-03-19T10:33:42.630Z,1.67
2019-03-19T10:38:45.329Z,1.23
2019-03-19T10:43:48.015Z,1.93
2019-03-19T10:48:50.731Z,1.00
2019-03-19T10:53:53.414Z,1.77
2019-03-19T10:58:56.108Z,1.70
2019-03-19T11:03:58.795Z,1.13
2019-03-19T11:09:01.485Z,1.10
2019-03-19T11:14:04.180Z,1.10
2019-03-19T11:19:06.871Z,1.30
2019-03-19T11:24:09.583Z,1.23
2019-03-19T11:29:12.258Z,0.87
2019-03-19T11:34:14.941Z,1.10
2019-03-19T11:39:17.642Z,0.87
2019-03-19T11:44:20.358Z,1.00
2019-03-19T11:49:23.090Z,1.17
2019-03-19T11:54:25.791Z,0.80
2019-03-19T11:59:28.492Z,0.80
2019-03-19T12:04:31.188Z,0.90
2019-03-19T12:09:33.891Z,1.20
2019-03-19T12:14:36.624Z,1.53
2019-03-19T12:19:39.417Z,2.60
2019-03-19T12:24:42.206Z,1.50
2019-03-19T12:29:44.891Z,1.10
2019-03-19T12:34:47.592Z,1.37
2019-03-19T12:39:50.303Z,1.23
2019-03-19T12:44:53.008Z,0.90
2019-03-19T12:49:55.687Z,0.80
2019-03-19T12:54:58.376Z,0.90
2019-03-19T13:00:01.062Z,1.10
2019-03-19T13:05:04.499Z,1.10
2019-03-19T13:10:10.903Z,0.70
2019-03-19T13:15:14.668Z,0.90
2019-03-19T13:20:17.369Z,1.50
2019-03-19T13:25:20.078Z,0.87
2019-03-19T13:30:22.806Z,1.10
2019-03-19T13:35:25.510Z,0.80
2019-03-19T13:40:28.188Z,1.17
2019-03-19T13:45:30.890Z,1.13
2019-03-19T13:50:33.594Z,0.73
2019-03-19T13:55:36.319Z,0.80
2019-03-19T14:00:39.038Z,0.90
2019-03-19T14:05:41.750Z,1.00
2019-03-19T14:10:44.454Z,1.70
2019-03-19T14:15:47.155Z,1.03
2019-03-19T14:20:49.831Z,0.90
2019-03-19T14:25:52.562Z,0.70
2019-03-19T14:31:07.667Z,0.80
2019-03-19T14:35:59.932Z,0.90
2019-03-19T14:41:02.639Z,0.87
2019-03-19T14:46:05.342Z,1.23
2019-03-19T14:51:08.037Z,2.20
2019-03-19T14:56:10.727Z,1.53
2019-03-19T15:01:19.384Z,1.00
2019-03-19T15:06:18.082Z,1.10
2019-03-19T15:11:20.781Z,0.90
2019-03-19T15:16:23.499Z,1.00
2019-03-19T15:21:26.201Z,0.80
2019-03-19T15:26:28.893Z,1.50
2019-03-19T15:31:31.754Z,0.90
2019-03-19T15:36:34.444Z,1.10
2019-03-19T15:41:37.173Z,0.80
2019-03-19T15:46:39.908Z,1.07
2019-03-19T15:51:42.619Z,1.20
2019-03-19T15:56:45.303Z,1.30
2019-03-19T16:01:48.009Z,1.40
2019-03-19T16:06:50.712Z,1.37
2019-03-19T16:11:53.394Z,1.00
2019-03-19T16:16:56.106Z,1.13
2019-03-19T16:21:58.800Z,1.63
2019-03-19T16:27:01.504Z,0.90
2019-03-19T16:32:04.201Z,1.20
2019-03-19T16:37:06.897Z,1.10
2019-03-19T16:42:09.602Z,1.07
2019-03-19T16:47:12.299Z,1.20
2019-03-19T16:52:15.029Z,1.10
2019-03-19T16:57:17.865Z,1.13
2019-03-19T17:02:20.590Z,1.20
2019-03-19T17:07:23.300Z,1.30
2019-03-19T17:12:25.992Z,1.23
2019-03-19T17:17:28.692Z,3.40
2019-03-19T17:22:31.427Z,1.30
2019-03-19T17:27:34.142Z,1.10
2019-03-19T17:32:36.844Z,2.20
2019-03-19T17:37:39.600Z,0.90
2019-03-19T17:42:42.350Z,4.70
2019-03-19T17:47:45.154Z,1.70
2019-03-19T17:52:49.056Z,3.83
2019-03-19T17:57:51.790Z,5.10
2019-03-19T18:02:54.484Z,5.17
2019-03-19T18:07:57.188Z,2.00
2019-03-19T18:12:59.952Z,10.67
2019-03-19T18:18:02.744Z,8.93
2019-03-19T18:23:05.575Z,13.80
2019-03-19T18:28:08.308Z,7.60
2019-03-19T18:33:11.032Z,7.83
2019-03-19T18:38:13.855Z,6.33
2019-03-19T18:43:16.574Z,5.10
2019-03-19T18:48:19.333Z,2.50
2019-03-19T18:53:22.013Z,2.53
2019-03-19T18:58:24.244Z,2.10
2019-03-19T19:03:26.998Z,2.50
2019-03-19T19:08:29.682Z,2.40
2019-03-19T19:13:32.365Z,2.73
2019-03-19T19:18:35.108Z,2.47
2019-03-19T19:23:37.803Z,3.03
2019-03-19T19:28:41.748Z,2.77
2019-03-19T19:33:44.438Z,2.83
2019-03-19T19:38:47.124Z,1.80
2019-03-19T19:43:49.809Z,2.80
2019-03-19T19:48:52.603Z,2.33
2019-03-19T19:53:55.296Z,2.43
2019-03-19T19:58:58.010Z,2.77
2019-03-19T20:04:00.699Z,2.30
2019-03-19T20:09:06.446Z,1.63
2019-03-19T20:14:10.174Z,6.03
2019-03-19T20:19:13.016Z,2.40
2019-03-19T20:24:15.716Z,2.87
2019-03-19T20:29:18.427Z,2.43
2019-03-19T20:34:21.109Z,2.40
2019-03-19T20:39:23.794Z,2.70
2019-03-19T20:44:26.498Z,3.00
2019-03-19T20:49:31.258Z,3.20
2019-03-19T20:54:33.951Z,3.13
2019-03-19T20:59:36.871Z,4.00
2019-03-19T21:04:39.570Z,3.10
2019-03-19T21:09:42.250Z,4.10
2019-03-19T21:14:44.959Z,3.47
2019-03-19T21:19:47.669Z,3.20
2019-03-19T21:24:50.361Z,3.63
2019-03-19T21:29:53.062Z,4.20
2019-03-19T21:34:55.762Z,4.63
2019-03-19T21:39:58.474Z,4.80
2019-03-19T21:45:01.150Z,4.97
2019-03-19T21:50:04.759Z,7.27
2019-03-19T21:55:07.815Z,7.20
2019-03-19T22:00:13.368Z,5.20
2019-03-19T22:05:16.048Z,4.80
2019-03-19T22:10:19.390Z,5.67
2019-03-19T22:15:22.303Z,5.50
2019-03-19T22:20:24.992Z,5.17
2019-03-19T22:25:27.695Z,5.20
2019-03-19T22:30:30.410Z,4.80
2019-03-19T22:35:33.101Z,4.60
2019-03-19T22:40:35.784Z,4.37
2019-03-19T22:45:38.475Z,4.30
2019-03-19T22:50:41.213Z,3.90
2019-03-19T22:55:43.931Z,4.03
2019-03-19T23:00:49.645Z,4.20
2019-03-19T23:05:52.332Z,3.93
2019-03-19T23:10:55.045Z,3.40
2019-03-19T23:15:57.766Z,3.50
2019-03-19T23:21:00.473Z,3.40
2019-03-19T23:26:03.272Z,3.57
2019-03-19T23:31:05.977Z,3.27
2019-03-19T23:36:08.694Z,3.97
2019-03-19T23:41:11.508Z,3.63
2019-03-19T23:46:14.194Z,3.43
2019-03-19T23:51:16.881Z,3.50
2019-03-19T23:56:19.583Z,3.20
